Time;durP1;ratioP1;P1;durP2;ratioP2;P2;SDS_P1;SDS_P2;PMS_P1;PMS_P2;Temp;Humidity;BMP_temperature;BMP_pressure;BME280_temperature;BME280_humidity;BME280_pressure;Samples;Min_cycle;Max_cycle;Signal;HPM_P1;HPM_P2
2022/09/22 00:01:37;;;;;;;7.95;3.88;;;9.20;99.90;;;;;;4972165;28;20031;-73
2022/09/22 00:04:07;;;;;;;5.90;3.47;;;9.20;99.90;;;;;;4971729;28;20027;-72
2022/09/22 00:06:37;;;;;;;7.35;3.35;;;9.20;99.90;;;;;;4971566;28;20423;-72
2022/09/22 00:09:04;;;;;;;6.15;3.13;;;9.10;99.90;;;;;;4975008;28;20043;-72
2022/09/22 00:11:35;;;;;;;10.10;4.00;;;9.10;99.90;;;;;;4975057;28;20027;-72
2022/09/22 00:14:27;;;;;;;5.65;3.30;;;9.10;99.90;;;;;;4975103;28;20039;-71
2022/09/22 00:17:01;;;;;;;6.18;2.97;;;9.00;99.90;;;;;;4971696;28;20059;-72
2022/09/22 00:19:35;;;;;;;7.25;3.35;;;9.00;99.90;;;;;;4975636;28;20027;-70
2022/09/22 00:22:01;;;;;;;5.13;3.08;;;9.00;99.90;;;;;;4957270;28;20376;-73
2022/09/22 00:24:28;;;;;;;6.50;3.63;;;8.90;99.90;;;;;;4975689;28;20472;-72
2022/09/22 00:26:56;;;;;;;4.68;3.15;;;8.90;99.90;;;;;;4958105;28;20027;-72
2022/09/22 00:29:23;;;;;;;4.50;2.53;;;8.90;99.90;;;;;;4974591;28;20082;-72
2022/09/22 00:31:49;;;;;;;7.95;3.17;;;8.90;99.90;;;;;;4975519;28;20034;-72
2022/09/22 00:34:20;;;;;;;3.97;2.50;;;8.80;99.90;;;;;;4975778;28;20066;-72
2022/09/22 00:36:47;;;;;;;6.00;2.80;;;8.80;99.90;;;;;;4975424;28;20058;-71
2022/09/22 00:39:13;;;;;;;4.85;2.55;;;8.80;99.90;;;;;;4975876;28;20023;-71
2022/09/22 00:41:43;;;;;;;6.35;2.92;;;8.80;99.90;;;;;;4974945;28;20031;-70
2022/09/22 00:44:31;;;;;;;6.50;2.85;;;8.80;99.90;;;;;;4974860;28;20019;-72
2022/09/22 00:47:36;;;;;;;6.80;3.00;;;8.70;99.90;;;;;;4975878;28;20038;-72
2022/09/22 00:50:10;;;;;;;4.10;2.50;;;8.80;99.90;;;;;;4974996;28;20028;-72
2022/09/22 00:53:12;;;;;;;5.88;2.40;;;8.80;99.90;;;;;;4974346;28;20024;-72
2022/09/22 00:55:46;;;;;;;7.07;2.75;;;8.70;99.90;;;;;;4926688;28;20078;-71
2022/09/22 00:58:15;;;;;;;6.88;2.70;;;8.70;99.90;;;;;;4974658;28;20023;-73
2022/09/22 01:00:42;;;;;;;5.80;3.08;;;8.70;99.90;;;;;;4975058;28;20019;-71
2022/09/22 01:03:16;;;;;;;3.58;2.25;;;8.70;99.90;;;;;;4974855;28;20105;-71
2022/09/22 01:05:42;;;;;;;;;;;8.70;99.90;;;;;;4975820;28;20094;-72
2022/09/22 01:08:10;;;;;;;6.53;2.83;;;8.70;99.90;;;;;;4974551;28;19910;-73
2022/09/22 01:10:36;;;;;;;7.32;2.78;;;8.70;99.90;;;;;;4974708;28;20079;-71
2022/09/22 01:13:23;;;;;;;6.03;2.55;;;8.70;99.90;;;;;;4974910;28;20030;-72
2022/09/22 01:15:55;;;;;;;5.80;2.90;;;8.60;99.90;;;;;;4974182;28;20350;-71
2022/09/22 01:18:49;;;;;;;5.20;3.13;;;8.60;99.90;;;;;;4957125;28;20057;-71
2022/09/22 01:21:20;;;;;;;4.03;2.47;;;8.60;99.90;;;;;;4975140;28;20356;-72
2022/09/22 01:24:17;;;;;;;6.45;2.00;;;8.50;99.90;;;;;;4974421;28;20087;-72
2022/09/22 01:26:51;;;;;;;12.75;2.95;;;8.50;99.90;;;;;;4973851;28;20034;-71
2022/09/22 01:29:25;;;;;;;5.00;2.60;;;8.50;99.90;;;;;;4974012;28;20020;-71
2022/09/22 01:31:56;;;;;;;;;;;8.40;99.90;;;;;;4974335;28;20027;-71
2022/09/22 01:34:34;;;;;;;8.50;2.80;;;8.40;99.90;;;;;;4974694;28;19914;-72
2022/09/22 01:37:19;;;;;;;5.47;2.85;;;8.40;99.90;;;;;;4973746;28;20461;-71
2022/09/22 01:39:50;;;;;;;12.15;3.05;;;8.30;99.90;;;;;;4973628;28;20035;-72
2022/09/22 01:42:48;;;;;;;10.95;2.97;;;8.30;99.90;;;;;;4974623;28;20031;-72
2022/09/22 01:45:18;;;;;;;6.63;3.15;;;8.40;99.90;;;;;;4973768;28;20074;-72
2022/09/22 01:48:02;;;;;;;5.70;3.17;;;8.40;99.90;;;;;;4973808;28;20046;-72
2022/09/22 01:50:57;;;;;;;4.93;2.83;;;8.40;99.90;;;;;;4974142;28;20047;-72
2022/09/22 01:53:29;;;;;;;6.65;2.88;;;8.40;99.90;;;;;;4915473;28;20053;-72
2022/09/22 01:56:00;;;;;;;8.80;3.13;;;8.40;99.90;;;;;;4973879;28;20476;-72
2022/09/22 01:58:32;;;;;;;4.43;2.85;;;8.30;99.90;;;;;;4974325;28;20050;-72
2022/09/22 02:01:21;;;;;;;5.65;2.60;;;8.30;99.90;;;;;;4973904;28;20046;-71
2022/09/22 02:03:55;;;;;;;5.80;2.83;;;8.30;99.90;;;;;;4956215;28;20066;-72
2022/09/22 02:06:42;;;;;;;8.75;3.47;;;8.30;99.90;;;;;;4974045;28;20026;-71
2022/09/22 02:09:14;;;;;;;7.88;3.42;;;8.30;99.90;;;;;;4973932;28;20019;-71
2022/09/22 02:11:41;;;;;;;4.53;2.72;;;8.30;99.90;;;;;;4973250;28;20031;-71
2022/09/22 02:14:07;;;;;;;8.35;3.53;;;8.30;99.90;;;;;;4971887;28;20042;-73
2022/09/22 02:16:33;;;;;;;8.25;2.58;;;8.30;99.90;;;;;;4973730;28;20074;-72
2022/09/22 02:19:02;;;;;;;5.85;3.25;;;8.30;99.90;;;;;;4973678;28;20034;-72
2022/09/22 02:21:28;;;;;;;6.03;2.70;;;8.20;99.90;;;;;;4973202;28;20030;-71
2022/09/22 02:23:54;;;;;;;7.78;3.15;;;8.20;99.90;;;;;;4973729;28;20031;-72
2022/09/22 02:26:26;;;;;;;5.53;2.90;;;8.20;99.90;;;;;;4971415;28;20038;-71
2022/09/22 02:28:59;;;;;;;9.98;3.03;;;8.10;99.90;;;;;;4973174;28;20023;-73
2022/09/22 02:31:27;;;;;;;8.90;3.53;;;8.10;99.90;;;;;;4973502;28;20019;-71
2022/09/22 02:33:54;;;;;;;7.53;3.05;;;8.10;99.90;;;;;;4973458;28;20046;-72
2022/09/22 02:36:37;;;;;;;5.28;2.78;;;8.00;99.90;;;;;;4973314;28;20504;-71
2022/09/22 02:39:17;;;;;;;8.90;2.50;;;8.00;99.90;;;;;;4972877;28;20121;-71
2022/09/22 02:42:05;;;;;;;4.07;2.67;;;7.90;99.90;;;;;;4972466;28;20035;-72
2022/09/22 02:44:35;;;;;;;12.60;3.00;;;7.90;99.90;;;;;;4972462;28;20031;-72
2022/09/22 02:47:35;;;;;;;5.43;3.05;;;7.80;99.90;;;;;;4972469;28;20055;-72
2022/09/22 02:50:04;;;;;;;4.85;2.58;;;7.80;99.90;;;;;;4950638;28;20034;-72
2022/09/22 02:52:30;;;;;;;4.10;2.85;;;7.80;99.90;;;;;;4972871;28;20038;-73
2022/09/22 02:54:55;;;;;;;8.90;3.20;;;7.80;99.90;;;;;;4973167;28;20039;-73
2022/09/22 02:57:21;;;;;;;8.45;3.95;;;7.80;99.90;;;;;;4973172;28;20541;-72
2022/09/22 02:59:47;;;;;;;15.65;4.47;;;7.80;99.90;;;;;;4973092;28;20053;-72
2022/09/22 03:02:12;;;;;;;11.07;4.70;;;7.80;99.90;;;;;;4972982;28;20019;-71
2022/09/22 03:04:38;;;;;;;9.90;4.18;;;7.80;99.90;;;;;;4972744;28;20030;-72
2022/09/22 03:07:05;;;;;;;11.68;5.18;;;7.70;99.90;;;;;;4971983;28;20075;-71
2022/09/22 03:09:31;;;;;;;12.15;5.18;;;7.70;99.90;;;;;;4972328;28;20087;-71
2022/09/22 03:11:57;;;;;;;12.80;5.15;;;7.70;99.90;;;;;;4972782;28;20105;-72
2022/09/22 03:14:22;;;;;;;11.93;5.03;;;7.80;99.90;;;;;;4973255;28;20046;-74
2022/09/22 03:16:48;;;;;;;11.63;4.82;;;7.70;99.90;;;;;;4955495;28;20534;-73
2022/09/22 03:19:13;;;;;;;13.32;5.68;;;7.80;99.90;;;;;;4972846;28;20054;-73
2022/09/22 03:21:39;;;;;;;12.35;5.25;;;7.80;99.90;;;;;;4971517;28;20028;-72
2022/09/22 03:24:05;;;;;;;13.05;4.93;;;7.70;99.90;;;;;;4973014;28;20019;-72
2022/09/22 03:26:30;;;;;;;10.40;4.63;;;7.70;99.90;;;;;;4972823;28;20564;-73
2022/09/22 03:28:56;;;;;;;9.18;4.30;;;7.70;99.90;;;;;;4972579;28;20029;-70
2022/09/22 03:31:22;;;;;;;9.20;4.40;;;7.70;99.90;;;;;;4972400;28;20094;-74
2022/09/22 03:33:47;;;;;;;13.88;4.97;;;7.70;99.90;;;;;;4971661;28;20062;-72
2022/09/22 03:36:13;;;;;;;18.33;4.55;;;7.70;99.90;;;;;;4950460;29;20076;-71
2022/09/22 03:38:38;;;;;;;9.23;4.70;;;7.60;99.90;;;;;;4953119;29;20051;-71
2022/09/22 03:41:04;;;;;;;11.73;4.78;;;7.60;99.90;;;;;;4952998;29;20039;-72
2022/09/22 03:43:30;;;;;;;9.90;4.65;;;7.60;99.90;;;;;;4953660;29;20027;-73
2022/09/22 03:45:57;;;;;;;7.72;4.15;;;7.60;99.90;;;;;;4957401;29;20032;-71
2022/09/22 03:48:23;;;;;;;8.70;4.47;;;7.60;99.90;;;;;;4956510;29;20032;-73
2022/09/22 03:50:49;;;;;;;7.95;4.20;;;7.60;99.90;;;;;;4956184;29;20035;-71
2022/09/22 03:53:14;;;;;;;14.10;7.47;;;7.60;99.90;;;;;;4956861;29;20053;-71
2022/09/22 03:55:40;;;;;;;16.60;6.47;;;7.60;99.90;;;;;;4956067;29;20044;-72
2022/09/22 03:58:05;;;;;;;12.70;4.72;;;7.50;99.90;;;;;;4956982;29;20412;-73
2022/09/22 04:00:31;;;;;;;5.88;3.90;;;7.50;99.90;;;;;;4957018;29;20030;-71
2022/09/22 04:02:57;;;;;;;14.40;5.03;;;7.50;99.90;;;;;;4956839;29;20481;-72
2022/09/22 04:05:24;;;;;;;5.97;3.50;;;7.50;99.90;;;;;;4957090;29;20032;-72
2022/09/22 04:07:49;;;;;;;9.55;3.97;;;7.40;99.90;;;;;;4956774;29;20126;-71
2022/09/22 04:10:15;;;;;;;7.07;3.95;;;7.40;99.90;;;;;;4956070;29;20032;-71
2022/09/22 04:12:40;;;;;;;7.63;3.88;;;7.40;99.90;;;;;;4954278;29;20028;-72
2022/09/22 04:15:06;;;;;;;9.82;3.88;;;7.40;99.90;;;;;;4956304;29;20047;-72
2022/09/22 04:17:32;;;;;;;6.03;3.80;;;7.40;99.90;;;;;;4955420;29;20040;-72
2022/09/22 04:19:58;;;;;;;6.55;3.75;;;7.30;99.90;;;;;;4956555;29;20019;-73
2022/09/22 04:22:23;;;;;;;6.55;3.63;;;7.30;99.90;;;;;;4957080;29;20468;-71
2022/09/22 04:24:49;;;;;;;6.25;3.97;;;7.30;99.90;;;;;;4955448;29;20035;-72
2022/09/22 04:27:15;;;;;;;6.32;3.80;;;7.30;99.90;;;;;;4956414;29;20031;-71
2022/09/22 04:29:40;;;;;;;8.85;4.50;;;7.30;99.90;;;;;;4956081;29;20039;-72
2022/09/22 04:32:06;;;;;;;6.20;3.20;;;7.30;99.90;;;;;;4956252;29;20024;-72
2022/09/22 04:34:32;;;;;;;7.15;4.20;;;7.30;99.90;;;;;;4956441;29;20435;-71
2022/09/22 04:36:57;;;;;;;9.50;4.45;;;7.30;99.90;;;;;;4974421;28;20039;-73
2022/09/22 04:39:23;;;;;;;7.97;4.32;;;7.30;99.90;;;;;;4975915;28;20023;-74
2022/09/22 04:41:49;;;;;;;6.45;3.85;;;7.30;99.90;;;;;;4975801;28;20109;-72
2022/09/22 04:44:14;;;;;;;7.43;4.43;;;7.30;99.90;;;;;;4975070;28;20049;-71
2022/09/22 04:46:41;;;;;;;8.48;3.72;;;7.30;99.90;;;;;;4975684;28;20023;-72
2022/09/22 04:49:06;;;;;;;9.35;4.40;;;7.30;99.90;;;;;;4975076;28;20025;-72
2022/09/22 04:51:32;;;;;;;9.32;4.55;;;7.30;99.90;;;;;;4975498;28;20109;-72
2022/09/22 04:53:57;;;;;;;9.68;4.88;;;7.30;99.90;;;;;;4974633;28;20081;-72
2022/09/22 04:56:23;;;;;;;13.20;5.68;;;7.30;99.90;;;;;;4958085;28;20034;-74
2022/09/22 04:58:48;;;;;;;15.57;5.18;;;7.30;99.90;;;;;;4974975;28;20023;-73
2022/09/22 05:01:14;;;;;;;12.80;4.97;;;7.30;99.90;;;;;;4975398;28;20077;-73
2022/09/22 05:03:39;;;;;;;8.18;4.63;;;7.30;99.90;;;;;;4975017;28;20039;-71
2022/09/22 05:06:06;;;;;;;14.70;5.85;;;7.30;99.90;;;;;;4973945;28;20035;-72
2022/09/22 05:08:31;;;;;;;9.05;4.32;;;7.20;99.90;;;;;;4974849;28;20047;-72
2022/09/22 05:10:57;;;;;;;8.55;4.93;;;7.20;99.90;;;;;;4974945;28;20031;-72
2022/09/22 05:13:24;;;;;;;10.63;4.60;;;7.20;99.90;;;;;;4973864;28;20038;-73
2022/09/22 05:15:49;;;;;;;12.35;4.45;;;7.10;99.90;;;;;;4974820;28;20018;-71
2022/09/22 05:18:15;;;;;;;9.13;4.43;;;7.10;99.90;;;;;;4971992;28;20033;-71
2022/09/22 05:20:43;;;;;;;13.52;4.20;;;7.10;99.90;;;;;;4972917;28;20066;-73
2022/09/22 05:23:09;;;;;;;10.77;4.20;;;7.00;99.90;;;;;;4973398;28;20026;-73
2022/09/22 05:25:35;;;;;;;6.30;3.65;;;7.00;99.90;;;;;;4973404;28;20026;-74
2022/09/22 05:28:01;;;;;;;9.05;3.78;;;7.00;99.90;;;;;;4973498;28;20016;-73
2022/09/22 05:30:27;;;;;;;9.57;4.22;;;7.00;99.90;;;;;;4974237;28;20038;-73
2022/09/22 05:32:53;;;;;;;12.25;4.68;;;6.90;99.90;;;;;;4972785;28;20027;-74
2022/09/22 05:35:21;;;;;;;8.57;4.05;;;6.90;99.90;;;;;;4973495;28;20142;-73
2022/09/22 05:37:48;;;;;;;8.48;3.88;;;6.90;99.90;;;;;;4974493;28;20026;-73
2022/09/22 05:40:14;;;;;;;9.63;3.65;;;6.90;99.90;;;;;;4955762;28;20022;-74
2022/09/22 05:42:45;;;;;;;7.40;4.10;;;6.90;99.90;;;;;;4973858;28;20023;-73
2022/09/22 05:45:10;;;;;;;6.68;3.67;;;6.90;99.90;;;;;;4955229;28;20031;-73
2022/09/22 05:47:37;;;;;;;7.88;4.28;;;7.00;99.90;;;;;;4971963;28;20042;-74
2022/09/22 05:50:06;;;;;;;6.85;3.97;;;7.00;99.90;;;;;;4973074;28;20031;-74
2022/09/22 05:52:31;;;;;;;9.63;4.13;;;7.00;99.90;;;;;;4969440;28;20488;-74
2022/09/22 05:54:57;;;;;;;7.95;3.63;;;7.00;99.90;;;;;;4970878;28;20059;-74
2022/09/22 05:57:26;;;;;;;6.85;4.20;;;7.00;99.90;;;;;;4971611;28;20031;-74
2022/09/22 05:59:54;;;;;;;8.48;4.47;;;7.10;99.90;;;;;;4953298;28;20050;-74
2022/09/22 06:02:22;;;;;;;13.65;4.10;;;7.10;99.90;;;;;;4971363;28;20026;-74
2022/09/22 06:04:47;;;;;;;10.70;5.15;;;7.10;99.90;;;;;;4973163;28;20047;-73
2022/09/22 06:07:13;;;;;;;8.23;4.40;;;7.20;99.90;;;;;;4951771;28;22001;-75
2022/09/22 06:09:38;;;;;;;14.60;5.07;;;7.20;99.90;;;;;;4952710;28;20639;-74
2022/09/22 06:12:07;;;;;;;14.35;5.43;;;7.30;99.90;;;;;;4967845;28;20088;-73
2022/09/22 06:14:32;;;;;;;15.55;4.93;;;7.30;99.90;;;;;;4972866;28;20050;-73
2022/09/22 06:16:58;;;;;;;17.30;7.57;;;7.30;99.90;;;;;;4971984;28;20043;-73
2022/09/22 06:19:25;;;;;;;16.92;6.88;;;7.40;99.90;;;;;;4972414;28;20103;-74
2022/09/22 06:21:51;;;;;;;9.65;5.60;;;7.50;99.90;;;;;;4973626;28;20473;-73
2022/09/22 06:24:17;;;;;;;21.08;5.45;;;7.60;99.90;;;;;;4952837;28;20031;-73
2022/09/22 06:26:43;;;;;;;8.60;4.60;;;7.70;99.90;;;;;;4971341;28;20023;-75
2022/09/22 06:29:09;;;;;;;10.02;5.22;;;7.80;99.90;;;;;;4973369;28;20058;-74
2022/09/22 06:31:35;;;;;;;11.13;5.35;;;7.80;99.90;;;;;;4970392;28;20027;-73
2022/09/22 06:34:01;;;;;;;9.02;4.85;;;7.90;99.90;;;;;;4956435;28;20459;-74
2022/09/22 06:36:30;;;;;;;14.75;5.15;;;8.00;99.90;;;;;;4955603;28;20056;-73
2022/09/22 06:38:58;;;;;;;12.27;5.28;;;8.00;99.90;;;;;;4952049;28;20043;-73
2022/09/22 06:41:26;;;;;;;9.90;5.35;;;8.10;99.90;;;;;;4973408;28;20061;-74
2022/09/22 06:43:54;;;;;;;11.20;5.70;;;8.20;99.90;;;;;;4971532;28;20030;-73
2022/09/22 06:46:22;;;;;;;9.25;4.68;;;8.30;99.90;;;;;;4971845;28;20038;-73
2022/09/22 06:48:49;;;;;;;10.40;5.35;;;8.40;99.90;;;;;;4953226;28;20050;-73
2022/09/22 06:51:15;;;;;;;9.55;4.65;;;8.40;99.90;;;;;;4969636;28;20030;-73
2022/09/22 06:53:40;;;;;;;12.57;5.57;;;8.50;99.90;;;;;;4971003;28;20036;-74
2022/09/22 06:56:07;;;;;;;14.85;5.22;;;8.50;99.90;;;;;;4971345;28;20041;-73
2022/09/22 06:58:33;;;;;;;8.48;4.85;;;8.70;99.90;;;;;;4968952;28;20026;-75
2022/09/22 07:01:05;;;;;;;10.10;5.00;;;8.70;99.90;;;;;;4972265;28;20097;-75
2022/09/22 07:03:32;;;;;;;8.77;4.82;;;8.80;99.90;;;;;;4969884;28;20086;-74
2022/09/22 07:06:00;;;;;;;11.88;5.35;;;8.90;99.90;;;;;;4954016;28;20122;-73
2022/09/22 07:08:27;;;;;;;10.20;5.35;;;9.00;99.90;;;;;;4972682;28;20015;-74
2022/09/22 07:10:55;;;;;;;10.63;5.43;;;9.10;99.90;;;;;;4972577;28;20016;-74
2022/09/22 07:13:21;;;;;;;6.03;3.88;;;9.20;99.90;;;;;;4972006;28;20078;-73
2022/09/22 07:15:47;;;;;;;16.67;5.15;;;9.30;99.90;;;;;;4954914;28;20053;-75
2022/09/22 07:18:13;;;;;;;10.35;5.20;;;9.40;99.90;;;;;;4972579;28;20030;-74
2022/09/22 07:20:39;;;;;;;11.98;4.80;;;9.60;99.90;;;;;;4970184;28;20022;-73
2022/09/22 07:23:15;;;;;;;10.50;5.70;;;9.70;99.90;;;;;;4971599;28;20063;-73
2022/09/22 07:25:40;;;;;;;11.38;5.50;;;9.80;99.90;;;;;;4971504;28;20031;-73
2022/09/22 07:28:10;;;;;;;16.63;5.65;;;9.90;99.90;;;;;;4971796;28;20023;-73
2022/09/22 07:30:36;;;;;;;10.23;5.18;;;9.90;99.90;;;;;;4972893;28;20065;-74
2022/09/22 07:33:02;;;;;;;18.17;5.07;;;10.10;99.90;;;;;;4972289;28;20065;-73
2022/09/22 07:35:28;;;;;;;16.33;5.88;;;10.20;99.90;;;;;;4972496;28;20051;-74
2022/09/22 07:37:59;;;;;;;14.93;6.50;;;10.30;99.90;;;;;;4955508;28;20023;-74
2022/09/22 07:40:25;;;;;;;11.52;5.40;;;10.40;99.90;;;;;;4971253;28;20042;-74
2022/09/22 07:42:50;;;;;;;10.45;4.90;;;10.60;99.90;;;;;;4955079;28;20022;-73
2022/09/22 07:45:16;;;;;;;12.32;5.28;;;10.80;99.90;;;;;;4954343;28;20029;-74
2022/09/22 07:50:28;;;;;;;8.52;4.55;;;11.40;99.90;;;;;;4971992;28;20558;-74
2022/09/22 07:52:54;;;;;;;7.25;3.88;;;11.60;99.90;;;;;;4955307;28;20042;-74
2022/09/22 07:55:24;;;;;;;9.35;4.32;;;11.90;99.90;;;;;;4964167;28;20555;-74
2022/09/22 07:57:57;;;;;;;6.78;3.67;;;12.10;99.90;;;;;;4971677;28;20023;-74
2022/09/22 08:00:25;;;;;;;19.92;4.38;;;12.40;99.90;;;;;;4963192;28;20034;-74
2022/09/22 08:02:56;;;;;;;8.82;3.90;;;12.60;99.90;;;;;;4968240;28;20047;-73
2022/09/22 08:05:23;;;;;;;6.80;3.42;;;12.70;99.90;;;;;;4971305;28;20027;-73
2022/09/22 08:07:48;;;;;;;10.85;3.45;;;12.90;99.90;;;;;;4969616;28;20034;-74
2022/09/22 08:10:15;;;;;;;14.35;4.47;;;13.00;99.90;;;;;;4972278;28;20031;-72
2022/09/22 08:12:41;;;;;;;7.25;3.70;;;13.20;99.90;;;;;;4970247;28;20030;-72
2022/09/22 08:15:08;;;;;;;11.05;3.83;;;13.30;99.90;;;;;;4964895;28;20050;-74
2022/09/22 08:17:33;;;;;;;7.22;3.22;;;13.40;99.90;;;;;;4971599;28;20034;-73
2022/09/22 08:20:02;;;;;;;6.65;3.53;;;13.50;99.90;;;;;;4970659;28;20031;-73
2022/09/22 08:22:28;;;;;;;10.27;4.13;;;13.50;99.90;;;;;;4971278;28;20015;-75
2022/09/22 08:24:54;;;;;;;7.95;3.67;;;13.50;99.90;;;;;;4951177;28;20032;-73
2022/09/22 08:27:19;;;;;;;10.80;3.88;;;13.40;99.90;;;;;;4968447;28;20231;-74
2022/09/22 08:29:45;;;;;;;6.57;4.00;;;13.40;99.90;;;;;;4971194;28;20058;-72
2022/09/22 08:32:11;;;;;;;9.05;3.75;;;13.30;99.90;;;;;;4975756;28;20023;-74
2022/09/22 08:34:37;;;;;;;7.45;3.88;;;13.30;99.90;;;;;;4975253;28;20440;-73
2022/09/22 08:37:03;;;;;;;5.60;3.40;;;13.30;99.90;;;;;;4966318;28;20051;-74
2022/09/22 08:39:29;;;;;;;9.57;4.03;;;13.30;99.90;;;;;;4972721;28;20023;-74
2022/09/22 08:42:21;;;;;;;8.07;3.65;;;13.30;99.90;;;;;;4972426;28;20026;-73
2022/09/22 08:45:02;;;;;;;5.97;3.38;;;13.40;99.90;;;;;;4973638;28;20038;-73
2022/09/22 08:53:22;;;;;;;6.05;3.22;;;13.60;99.90;;;;;;4974202;28;21144;-73
2022/09/22 08:55:57;;;;;;;10.15;3.08;;;13.60;99.90;;;;;;4973653;28;20360;-72
2022/09/22 08:58:48;;;;;;;5.65;3.28;;;13.70;99.90;;;;;;4974597;28;20488;-74
2022/09/22 09:01:27;;;;;;;7.55;3.25;;;13.80;99.90;;;;;;4974934;28;20535;-75
2022/09/22 09:03:56;;;;;;;8.05;3.30;;;13.90;99.90;;;;;;4974405;28;20045;-74
2022/09/22 09:06:51;;;;;;;8.95;3.90;;;14.00;99.90;;;;;;4975007;28;20109;-74
2022/09/22 09:09:42;;;;;;;4.80;3.00;;;14.00;99.90;;;;;;4974350;28;20041;-73
2022/09/22 09:12:13;;;;;;;8.85;3.60;;;14.10;99.90;;;;;;4974611;28;20476;-73
2022/09/22 09:15:03;;;;;;;7.45;3.10;;;14.10;99.90;;;;;;4974929;28;20062;-73
2022/09/22 09:17:34;;;;;;;6.57;3.35;;;14.30;99.90;;;;;;4973377;28;20035;-73
2022/09/22 09:20:27;;;;;;;6.93;3.05;;;14.40;99.90;;;;;;4974305;28;20034;-74
2022/09/22 09:22:57;;;;;;;5.60;2.85;;;14.50;99.90;;;;;;4973417;28;20444;-75
2022/09/22 09:25:37;;;;;;;10.80;3.53;;;14.60;99.90;;;;;;4970682;28;20019;-75
2022/09/22 09:28:30;;;;;;;5.13;2.30;;;14.80;99.90;;;;;;4973177;28;20027;-73
2022/09/22 09:31:20;;;;;;;13.90;2.30;;;14.80;99.90;;;;;;4971589;28;20027;-74
2022/09/22 09:33:57;;;;;;;10.05;2.88;;;14.90;99.90;;;;;;4970605;28;20102;-74
2022/09/22 09:36:28;;;;;;;6.65;2.97;;;15.00;99.90;;;;;;4955752;28;20058;-74
2022/09/22 09:38:55;;;;;;;6.20;2.78;;;15.10;99.90;;;;;;4970281;28;20047;-75
2022/09/22 09:41:26;;;;;;;6.72;2.47;;;15.20;99.90;;;;;;4973886;28;20062;-73
2022/09/22 09:43:53;;;;;;;8.63;2.28;;;15.40;99.90;;;;;;4973090;28;20411;-74
2022/09/22 09:46:39;;;;;;;9.20;1.90;;;15.50;99.90;;;;;;4974268;28;20058;-76
2022/09/22 09:49:11;;;;;;;5.78;2.42;;;15.60;99.90;;;;;;4973113;28;20113;-74
2022/09/22 09:51:39;;;;;;;5.60;2.00;;;15.70;99.90;;;;;;4955246;28;20031;-76
2022/09/22 09:54:07;;;;;;;3.53;1.65;;;15.80;99.90;;;;;;4971626;28;20046;-77
2022/09/22 09:56:35;;;;;;;5.80;2.15;;;15.90;99.90;;;;;;4967908;28;20037;-77
2022/09/22 10:01:53;;;;;;;5.57;1.23;;;16.00;99.90;;;;;;4974013;28;20042;-75
2022/09/22 10:04:32;;;;;;;5.05;1.23;;;16.00;99.90;;;;;;4970519;28;20027;-77
2022/09/22 10:07:14;;;;;;;4.85;1.42;;;16.20;99.90;;;;;;4956003;28;20037;-75
2022/09/22 10:09:40;;;;;;;9.57;1.17;;;16.30;99.90;;;;;;4972319;28;20050;-75
2022/09/22 10:12:18;;;;;;;2.05;1.00;;;16.30;99.90;;;;;;4973064;28;20053;-75
2022/09/22 10:14:50;;;;;;;1.83;1.00;;;16.40;99.90;;;;;;4973212;28;20038;-75
2022/09/22 10:17:22;;;;;;;5.88;1.20;;;16.50;99.90;;;;;;4956700;28;20027;-77
2022/09/22 10:19:49;;;;;;;7.55;0.98;;;16.60;99.90;;;;;;4955686;28;20541;-76
2022/09/22 10:22:22;;;;;;;6.97;0.95;;;16.60;99.90;;;;;;4973338;28;20023;-78
2022/09/22 10:24:52;;;;;;;2.67;1.33;;;16.70;99.90;;;;;;4973767;28;20022;-76
2022/09/22 10:27:25;;;;;;;2.10;0.93;;;16.60;99.90;;;;;;4971591;28;20038;-77
2022/09/22 10:30:09;;;;;;;3.22;1.20;;;16.80;99.90;;;;;;4973277;28;20488;-77
2022/09/22 10:32:36;;;;;;;5.75;1.02;;;16.90;99.90;;;;;;4972621;28;20031;-76
2022/09/22 10:35:27;;;;;;;4.07;0.80;;;16.90;99.90;;;;;;4969822;28;20181;-76
2022/09/22 10:38:00;;;;;;;2.67;1.00;;;17.10;99.90;;;;;;4955336;28;20061;-75
2022/09/22 10:40:28;;;;;;;2.97;0.85;;;17.20;99.90;;;;;;4971666;28;20037;-76
2022/09/22 10:42:58;;;;;;;2.10;1.13;;;17.30;99.90;;;;;;4972214;28;20107;-77
2022/09/22 10:45:51;;;;;;;2.35;0.88;;;17.30;99.90;;;;;;4972427;28;20027;-77
2022/09/22 10:49:10;;;;;;;3.70;0.88;;;17.30;99.90;;;;;;4971723;28;20019;-75
2022/09/22 10:52:00;;;;;;;2.35;1.10;;;17.40;99.90;;;;;;4948013;28;20050;-76
2022/09/22 10:54:50;;;;;;;7.97;1.05;;;17.50;99.90;;;;;;4969809;28;20767;-77
2022/09/22 10:57:52;;;;;;;3.20;0.77;;;17.70;99.90;;;;;;4954821;28;20066;-76
2022/09/22 11:00:25;;;;;;;2.20;1.30;;;17.90;99.90;;;;;;4971823;28;20022;-76
2022/09/22 11:03:22;;;;;;;7.10;1.13;;;17.90;99.90;;;;;;4954664;28;20027;-74
2022/09/22 11:12:27;;;;;;;2.85;0.90;;;17.50;99.90;;;;;;4973205;28;20038;-77
2022/09/22 11:15:21;;;;;;;1.70;0.90;;;17.60;99.90;;;;;;4970781;28;20063;-78
2022/09/22 11:18:18;;;;;;;2.57;0.80;;;17.60;99.90;;;;;;4970801;28;20039;-77
2022/09/22 11:20:50;;;;;;;2.20;1.10;;;17.40;99.90;;;;;;4971757;28;20054;-77
2022/09/22 11:23:27;;;;;;;4.10;1.17;;;17.50;99.90;;;;;;4970408;28;21079;-76
2022/09/22 11:26:11;;;;;;;3.72;1.42;;;17.70;99.90;;;;;;4970963;28;20109;-79
2022/09/22 11:28:59;;;;;;;1.40;0.93;;;18.00;99.90;;;;;;4952692;28;20031;-76
2022/09/22 11:31:49;;;;;;;3.03;1.38;;;18.10;99.90;;;;;;4952427;28;20038;-77
2022/09/22 11:34:45;;;;;;;3.42;1.30;;;18.00;99.90;;;;;;4952912;28;20051;-73
2022/09/22 11:37:25;;;;;;;4.30;1.38;;;18.00;99.90;;;;;;4971379;28;20097;-75
2022/09/22 11:40:31;;;;;;;5.45;1.20;;;18.30;99.90;;;;;;4953617;28;20030;-76
2022/09/22 11:43:34;;;;;;;4.68;1.02;;;18.60;99.90;;;;;;4970402;28;20035;-74
2022/09/22 11:46:21;;;;;;;2.70;1.10;;;18.60;99.90;;;;;;4971824;28;20030;-73
2022/09/22 11:48:53;;;;;;;1.52;0.80;;;18.40;99.90;;;;;;4970369;28;20026;-79
2022/09/22 11:51:30;;;;;;;2.10;1.30;;;18.40;99.90;;;;;;4970990;28;20063;-74
2022/09/22 11:54:20;;;;;;;8.38;0.85;;;18.50;99.90;;;;;;4970826;28;20122;-78
2022/09/22 11:56:53;;;;;;;5.03;1.00;;;18.50;99.90;;;;;;4969353;28;20363;-79
2022/09/22 11:59:40;;;;;;;2.30;1.03;;;18.60;99.90;;;;;;4954101;28;20046;-77
2022/09/22 12:02:40;;;;;;;2.22;0.80;;;18.60;99.90;;;;;;4970233;28;20055;-75
2022/09/22 12:05:13;;;;;;;2.30;0.93;;;18.70;99.90;;;;;;4919237;28;20061;-75
2022/09/22 12:07:47;;;;;;;2.40;1.10;;;18.50;99.90;;;;;;4974800;28;20110;-76
2022/09/22 12:10:37;;;;;;;1.77;0.75;;;18.40;99.90;;;;;;4956955;28;20126;-72
2022/09/22 12:13:08;;;;;;;3.95;1.05;;;18.60;99.90;;;;;;4973328;28;20037;-76
2022/09/22 12:15:46;;;;;;;2.05;0.90;;;18.70;99.90;;;;;;4974874;28;20051;-74
2022/09/22 12:18:20;;;;;;;1.65;0.80;;;18.30;99.90;;;;;;4955782;28;20077;-76
2022/09/22 12:21:02;;;;;;;4.90;0.80;;;18.10;99.90;;;;;;4957248;28;20031;-76
2022/09/22 12:23:40;;;;;;;6.00;1.10;;;17.90;99.90;;;;;;4975022;28;20035;-76
2022/09/22 12:26:09;;;;;;;2.85;1.05;;;17.80;99.90;;;;;;4974368;28;20345;-74
2022/09/22 12:28:45;;;;;;;3.42;1.00;;;17.80;99.90;;;;;;4956585;28;20035;-75
2022/09/22 12:31:15;;;;;;;3.42;1.27;;;17.60;99.90;;;;;;4973783;28;20034;-75
2022/09/22 12:33:51;;;;;;;3.80;0.98;;;17.90;99.90;;;;;;4974351;28;20046;-75
2022/09/22 12:36:27;;;;;;;2.85;1.23;;;18.50;99.90;;;;;;4957010;28;20637;-74
2022/09/22 12:39:06;;;;;;;1.02;0.93;;;19.10;99.90;;;;;;4971986;28;20110;-77
2022/09/22 12:41:40;;;;;;;3.13;1.08;;;19.50;99.90;;;;;;4955377;28;20019;-75
2022/09/22 12:44:12;;;;;;;3.45;0.98;;;19.30;99.90;;;;;;4970461;28;20058;-76
2022/09/22 12:46:41;;;;;;;1.85;0.88;;;19.10;99.90;;;;;;4973057;28;20031;-75
2022/09/22 12:49:10;;;;;;;3.60;0.90;;;19.00;99.90;;;;;;4974732;28;20082;-76
2022/09/22 12:51:35;;;;;;;11.70;1.05;;;19.00;99.90;;;;;;4954717;28;20020;-76
2022/09/22 12:54:20;;;;;;;1.95;0.80;;;19.00;99.90;;;;;;4957752;28;20058;-75
2022/09/22 12:56:52;;;;;;;;;;;19.20;99.90;;;;;;4975592;28;20455;-78
2022/09/22 12:59:36;;;;;;;3.05;0.90;;;19.40;99.90;;;;;;4975349;28;19917;-76
2022/09/22 13:02:14;;;;;;;2.57;1.00;;;19.10;99.90;;;;;;4974791;28;20023;-78
2022/09/22 13:04:55;;;;;;;2.50;1.05;;;18.90;99.90;;;;;;4974422;28;20611;-81
2022/09/22 13:07:37;;;;;;;2.45;0.98;;;18.50;99.90;;;;;;4975274;28;20027;-76
2022/09/22 13:13:09;;;;;;;1.83;0.82;;;18.10;99.90;;;;;;4974888;28;20615;-77
2022/09/22 13:15:49;;;;;;;1.67;0.85;;;17.90;99.90;;;;;;4956736;28;20079;-75
2022/09/22 13:18:32;;;;;;;1.50;0.82;;;17.90;99.90;;;;;;4957580;28;20037;-75
2022/09/22 13:21:19;;;;;;;1.65;0.60;;;18.10;99.90;;;;;;4957353;28;20028;-75
2022/09/22 13:23:48;;;;;;;1.25;0.70;;;18.60;99.90;;;;;;4956644;28;20031;-75
2022/09/22 13:26:15;;;;;;;0.90;0.77;;;19.30;99.90;;;;;;4974515;28;20027;-75
2022/09/22 13:28:41;;;;;;;4.38;0.75;;;19.80;99.90;;;;;;4974362;28;20022;-75
2022/09/22 13:31:15;;;;;;;4.15;1.10;;;20.20;99.90;;;;;;4974771;28;20031;-80
2022/09/22 13:33:42;;;;;;;4.15;1.02;;;20.10;99.90;;;;;;4974144;28;20031;-77
2022/09/22 13:36:19;;;;;;;6.28;0.70;;;19.90;99.90;;;;;;4953982;28;20039;-79
2022/09/22 13:38:49;;;;;;;2.22;0.93;;;19.60;99.90;;;;;;4953065;28;20086;-78